createdAt,value
2016-05-19T00:00:32.635Z,0
2016-05-19T00:01:32.450Z,0
2016-05-19T00:02:32.656Z,0
2016-05-19T00:03:32.643Z,0
2016-05-19T00:04:32.864Z,0
2016-05-19T00:05:32.883Z,0
2016-05-19T00:06:32.869Z,0
2016-05-19T00:07:32.669Z,0
2016-05-19T00:08:32.609Z,0
2016-05-19T00:09:33.175Z,0
2016-05-19T00:10:32.693Z,0
2016-05-19T00:11:32.664Z,0
2016-05-19T00:12:32.902Z,0
2016-05-19T00:13:32.655Z,0
2016-05-19T00:14:46.736Z,0
2016-05-19T00:15:32.691Z,0
2016-05-19T00:16:32.709Z,0
2016-05-19T00:17:32.681Z,0
2016-05-19T00:18:32.699Z,0
2016-05-19T00:19:32.733Z,0
2016-05-19T00:20:32.688Z,0
2016-05-19T00:21:32.566Z,0
2016-05-19T00:22:32.538Z,0
2016-05-19T00:24:32.685Z,0
2016-05-19T00:25:32.921Z,0
2016-05-19T00:26:32.704Z,0
2016-05-19T00:27:32.707Z,0
2016-05-19T00:28:32.757Z,0
2016-05-19T00:29:33.135Z,0
2016-05-19T00:30:46.653Z,0
2016-05-19T00:31:32.734Z,0
2016-05-19T00:32:32.595Z,0
2016-05-19T00:33:32.754Z,0
2016-05-19T00:34:32.992Z,0
2016-05-19T00:36:32.592Z,0
2016-05-19T00:37:32.797Z,0
2016-05-19T00:38:32.612Z,0
2016-05-19T00:39:32.740Z,0
2016-05-19T00:40:33.008Z,0
2016-05-19T00:41:32.620Z,0
2016-05-19T00:42:32.779Z,0
2016-05-19T00:43:32.781Z,0
2016-05-19T00:44:32.628Z,0
2016-05-19T00:45:33.225Z,0
2016-05-19T00:46:32.821Z,0
2016-05-19T00:47:32.652Z,0
2016-05-19T00:48:32.780Z,0
2016-05-19T00:49:32.797Z,0
2016-05-19T00:50:33.019Z,0
2016-05-19T00:51:32.819Z,0
2016-05-19T00:52:32.634Z,0
2016-05-19T00:53:33.277Z,0
2016-05-19T00:54:32.640Z,0
2016-05-19T00:55:32.830Z,0
2016-05-19T00:56:32.646Z,0
2016-05-19T00:57:32.835Z,0
2016-05-19T00:58:32.853Z,0
2016-05-19T00:59:32.654Z,0
2016-05-19T01:00:32.890Z,0
2016-05-19T01:01:33.814Z,0
2016-05-19T01:02:32.864Z,0
2016-05-19T01:03:32.382Z,0
2016-05-19T01:04:31.885Z,0
2016-05-19T01:05:32.685Z,0
2016-05-19T01:06:32.922Z,0
2016-05-19T01:07:32.925Z,0
2016-05-19T01:08:33.084Z,0
2016-05-19T01:09:32.836Z,0
2016-05-19T01:10:32.714Z,0
2016-05-19T01:11:32.841Z,0
2016-05-19T01:12:32.844Z,0
2016-05-19T01:14:33.256Z,0
2016-05-19T01:15:32.867Z,0
2016-05-19T01:16:32.886Z,0
2016-05-19T01:17:32.905Z,0
2016-05-19T01:18:33.126Z,0
2016-05-19T01:19:32.878Z,0
2016-05-19T01:20:32.943Z,0
2016-05-19T01:21:32.931Z,0
2016-05-19T01:22:32.981Z,0
2016-05-19T01:23:32.749Z,0
2016-05-19T01:24:33.157Z,0
2016-05-19T01:25:32.926Z,0
2016-05-19T01:26:32.741Z,0
2016-05-19T01:27:33.150Z,0
2016-05-19T01:28:32.590Z,0
2016-05-19T01:29:32.921Z,0
2016-05-19T01:30:32.846Z,0
2016-05-19T01:31:47.207Z,0
2016-05-19T01:32:32.945Z,0
2016-05-19T01:33:32.948Z,0
2016-05-19T01:34:32.965Z,0
2016-05-19T01:35:32.859Z,0
2016-05-19T01:36:33.003Z,0
2016-05-19T01:37:33.145Z,0
2016-05-19T01:38:33.165Z,0
2016-05-19T01:39:32.963Z,0
2016-05-19T01:40:32.997Z,0
2016-05-19T01:41:32.453Z,0
2016-05-19T01:42:32.831Z,0
2016-05-19T01:43:32.959Z,0
2016-05-19T01:44:32.978Z,0
2016-05-19T01:45:32.964Z,0
2016-05-19T01:46:32.967Z,0
2016-05-19T01:47:32.828Z,0
2016-05-19T01:48:32.988Z,0
2016-05-19T01:49:33.209Z,0
2016-05-19T01:50:32.837Z,0
2016-05-19T01:51:32.871Z,0
2016-05-19T01:52:33.030Z,0
2016-05-19T01:53:47.314Z,0
2016-05-19T01:54:32.879Z,0
2016-05-19T01:56:33.260Z,0
2016-05-19T01:57:32.840Z,0
2016-05-19T01:58:32.858Z,0
2016-05-19T01:59:33.033Z,0
2016-05-19T02:00:33.067Z,0
2016-05-19T02:01:32.882Z,0
2016-05-19T02:02:33.056Z,0
2016-05-19T02:03:32.887Z,0
2016-05-19T02:04:32.875Z,0
2016-05-19T02:05:46.846Z,0
2016-05-19T02:06:32.864Z,0
2016-05-19T02:07:33.039Z,0
2016-05-19T02:08:33.089Z,0
2016-05-19T02:09:33.263Z,0
2016-05-19T02:10:33.251Z,0
2016-05-19T02:11:33.097Z,0
2016-05-19T02:12:33.053Z,0
2016-05-19T02:13:32.915Z,0
2016-05-19T02:14:33.058Z,0
2016-05-19T02:15:33.311Z,0
2016-05-19T02:16:33.110Z,0
2016-05-19T02:17:32.925Z,0
2016-05-19T02:18:33.084Z,0
2016-05-19T02:19:47.352Z,0
2016-05-19T02:20:32.933Z,0
2016-05-19T02:21:32.952Z,0
2016-05-19T02:22:33.360Z,0
2016-05-19T02:23:33.082Z,0
2016-05-19T02:24:33.108Z,0
2016-05-19T02:25:33.095Z,0
2016-05-19T02:26:33.160Z,4
2016-05-19T02:27:33.132Z,4
2016-05-19T02:28:33.088Z,0
2016-05-19T02:29:33.122Z,0
2016-05-19T02:30:33.093Z,4
2016-05-19T02:31:32.955Z,4
2016-05-19T02:32:33.098Z,4
2016-05-19T02:33:32.991Z,4
2016-05-19T02:34:33.151Z,4
2016-05-19T02:35:33.216Z,4
2016-05-19T02:36:33.515Z,4
2016-05-19T02:37:47.581Z,4
2016-05-19T02:38:32.693Z,8
2016-05-19T02:39:33.554Z,8
2016-05-19T02:40:33.210Z,12
2016-05-19T02:42:32.787Z,12
2016-05-19T02:43:33.349Z,16
2016-05-19T02:44:47.427Z,16
2016-05-19T02:45:33.438Z,16
2016-05-19T02:46:47.176Z,24
2016-05-19T02:47:33.411Z,24
2016-05-19T02:48:33.446Z,28
2016-05-19T02:49:33.277Z,32
2016-05-19T02:51:33.453Z,40
2016-05-19T02:52:33.477Z,48
2016-05-19T02:53:33.672Z,56
2016-05-19T02:54:33.368Z,60
2016-05-19T02:55:32.859Z,64
2016-05-19T02:56:33.348Z,76
2016-05-19T02:57:33.524Z,84
2016-05-19T02:58:33.529Z,96
2016-05-19T02:59:47.800Z,104
2016-05-19T03:00:33.507Z,112
2016-05-19T03:01:33.510Z,128
2016-05-19T03:02:33.528Z,140
2016-05-19T03:03:33.814Z,152
2016-05-19T03:04:33.364Z,172
2016-05-19T03:05:33.618Z,188
2016-05-19T03:06:33.761Z,208
2016-05-19T03:07:33.263Z,232
2016-05-19T03:08:47.736Z,260
2016-05-19T03:09:33.566Z,280
2016-05-19T03:10:33.382Z,300
2016-05-19T03:11:33.728Z,324
2016-05-19T03:12:33.763Z,344
2016-05-19T03:13:33.953Z,360
2016-05-19T03:14:33.550Z,384
2016-05-19T03:15:33.802Z,404
2016-05-19T03:16:33.805Z,440
2016-05-19T03:17:33.573Z,468
2016-05-19T03:18:47.857Z,516
2016-05-19T03:19:33.407Z,548
2016-05-19T03:20:33.894Z,592
2016-05-19T03:21:33.849Z,640
2016-05-19T03:22:48.055Z,712
2016-05-19T03:23:33.635Z,756
2016-05-19T03:24:33.560Z,812
2016-05-19T03:25:33.282Z,876
2016-05-19T03:26:33.581Z,940
2016-05-19T03:27:34.084Z,1008
2016-05-19T03:28:33.634Z,1072
2016-05-19T03:29:33.871Z,1132
2016-05-19T03:30:33.576Z,1200
2016-05-19T03:31:33.798Z,1256
2016-05-19T03:32:33.582Z,1308
2016-05-19T03:33:33.804Z,1364
2016-05-19T03:34:33.416Z,1416
2016-05-19T03:35:33.621Z,1476
2016-05-19T03:36:33.609Z,1540
2016-05-19T03:37:33.611Z,1604
2016-05-19T03:38:33.941Z,1672
2016-05-19T03:39:33.851Z,1748
2016-05-19T03:40:33.619Z,1824
2016-05-19T03:41:33.528Z,1912
2016-05-19T03:42:33.671Z,2020
2016-05-19T03:43:33.611Z,2152
2016-05-19T03:44:33.677Z,2284
2016-05-19T03:45:33.616Z,2416
2016-05-19T03:46:33.697Z,2540
2016-05-19T03:47:33.513Z,2648
2016-05-19T03:48:47.781Z,2772
2016-05-19T03:49:33.738Z,2844
2016-05-19T03:50:33.865Z,2924
2016-05-19T03:51:33.649Z,3000
2016-05-19T03:52:33.886Z,3076
2016-05-19T03:53:33.999Z,3160
2016-05-19T03:54:33.672Z,3236
2016-05-19T03:55:33.660Z,3316
2016-05-19T03:56:33.662Z,3400
2016-05-19T03:57:33.852Z,3480
2016-05-19T03:58:33.730Z,3552
2016-05-19T03:59:33.935Z,3632
2016-05-19T04:00:33.688Z,3720
2016-05-19T04:01:47.722Z,3824
2016-05-19T04:02:33.678Z,3888
2016-05-19T04:03:34.118Z,3972
2016-05-19T04:04:33.699Z,4060
2016-05-19T04:05:33.561Z,4136
2016-05-19T04:06:33.689Z,4204
2016-05-19T04:07:33.692Z,4284
2016-05-19T04:08:34.539Z,4364
2016-05-19T04:09:34.088Z,4440
2016-05-19T04:10:34.153Z,4524
2016-05-19T04:11:33.531Z,4584
2016-05-19T04:12:33.940Z,4632
2016-05-19T04:13:33.927Z,4672
2016-05-19T04:14:33.429Z,4712
2016-05-19T04:15:33.713Z,4768
2016-05-19T04:16:33.106Z,4816
2016-05-19T04:17:33.719Z,4840
2016-05-19T04:18:33.940Z,4836
2016-05-19T04:19:33.911Z,4828
2016-05-19T04:20:33.726Z,4840
2016-05-19T04:21:33.729Z,4856
2016-05-19T04:22:33.951Z,4868
2016-05-19T04:23:47.688Z,4912
2016-05-19T04:24:33.769Z,4908
2016-05-19T04:25:33.740Z,4876
2016-05-19T04:26:33.774Z,4856
2016-05-19T04:27:33.980Z,4820
2016-05-19T04:28:33.983Z,4768
2016-05-19T04:29:33.766Z,4688
2016-05-19T04:30:34.004Z,4596
2016-05-19T04:31:33.788Z,4544
2016-05-19T04:32:33.806Z,4512
2016-05-19T04:33:33.762Z,4492
2016-05-19T04:34:34.014Z,4452
2016-05-19T04:35:33.798Z,4388
2016-05-19T04:36:33.785Z,4320
2016-05-19T04:37:33.803Z,4268
2016-05-19T04:38:33.635Z,4208
2016-05-19T04:39:34.012Z,4148
2016-05-19T04:40:33.702Z,4092
2016-05-19T04:41:33.831Z,4064
2016-05-19T04:42:33.817Z,4048
2016-05-19T04:43:33.664Z,4044
2016-05-19T04:44:33.166Z,4020
2016-05-19T04:45:33.528Z,4008
2016-05-19T04:46:33.718Z,4004
2016-05-19T04:47:33.394Z,4004
2016-05-19T04:48:33.692Z,4008
2016-05-19T04:49:47.914Z,4028
2016-05-19T04:50:33.714Z,4040
2016-05-19T04:51:33.732Z,4068
2016-05-19T04:52:33.563Z,4096
2016-05-19T04:53:34.659Z,4128
2016-05-19T04:54:48.178Z,4172
2016-05-19T04:55:33.743Z,4196
2016-05-19T04:56:33.745Z,4224
2016-05-19T04:57:34.124Z,4244
2016-05-19T04:58:33.907Z,4292
2016-05-19T04:59:33.910Z,4352
2016-05-19T05:01:33.727Z,4512
2016-05-19T05:02:33.793Z,4608
2016-05-19T05:03:34.123Z,4716
2016-05-19T05:04:33.923Z,4844
2016-05-19T05:05:33.942Z,4968
2016-05-19T05:06:33.929Z,5084
2016-05-19T05:07:33.947Z,5196
2016-05-19T05:08:33.778Z,5324
2016-05-19T05:09:33.765Z,5460
2016-05-19T05:10:33.939Z,5600
2016-05-19T05:11:33.801Z,5744
2016-05-19T05:12:33.976Z,5892
2016-05-19T05:13:33.979Z,6040
2016-05-19T05:14:34.153Z,6148
2016-05-19T05:15:33.797Z,6224
2016-05-19T05:16:33.972Z,6296
2016-05-19T05:17:34.192Z,6364
2016-05-19T05:18:33.727Z,6404
2016-05-19T05:19:48.245Z,6464
2016-05-19T05:20:33.982Z,6508
2016-05-19T05:21:34.250Z,6576
2016-05-19T05:22:33.877Z,6608
2016-05-19T05:23:34.193Z,6624
2016-05-19T05:24:34.244Z,6596
2016-05-19T05:25:34.449Z,6624
2016-05-19T05:26:33.998Z,6640
2016-05-19T05:27:33.860Z,6668
2016-05-19T05:28:33.894Z,6688
2016-05-19T05:29:48.100Z,6672
2016-05-19T05:30:33.899Z,6664
2016-05-19T05:31:33.918Z,6664
2016-05-19T05:32:34.061Z,6656
2016-05-19T05:33:34.079Z,6648
2016-05-19T05:34:33.738Z,6624
2016-05-19T05:35:34.101Z,6600
2016-05-19T05:36:33.618Z,6604
2016-05-19T05:37:34.059Z,6604
2016-05-19T05:38:33.952Z,6600
2016-05-19T05:39:34.065Z,6592
2016-05-19T05:40:34.332Z,6588
2016-05-19T05:41:33.976Z,6580
2016-05-19T05:42:48.182Z,6568
2016-05-19T05:43:34.138Z,6572
2016-05-19T05:44:34.156Z,6560
2016-05-19T05:45:34.331Z,6560
2016-05-19T05:46:34.114Z,6560
2016-05-19T05:47:34.101Z,6576
2016-05-19T05:48:33.963Z,6624
2016-05-19T05:49:34.139Z,6692
2016-05-19T05:50:34.125Z,6688
2016-05-19T05:51:33.972Z,6688
2016-05-19T05:52:33.990Z,6708
2016-05-19T05:53:34.805Z,6708
2016-05-19T05:54:34.261Z,6736
2016-05-19T05:55:34.170Z,6796
2016-05-19T05:56:34.000Z,6956
2016-05-19T05:57:34.019Z,7088
2016-05-19T05:58:34.177Z,7200
2016-05-19T05:59:34.180Z,8096
2016-05-19T06:00:48.511Z,9292
2016-05-19T06:01:34.608Z,9192
2016-05-19T06:02:34.221Z,8516
2016-05-19T06:03:34.223Z,8920
2016-05-19T06:04:34.226Z,9672
2016-05-19T06:05:48.275Z,9648
2016-05-19T06:06:33.762Z,8556
2016-05-19T06:07:34.234Z,7408
2016-05-19T06:09:33.926Z,7532
2016-05-19T06:10:34.273Z,7468
2016-05-19T06:11:34.665Z,7296
2016-05-19T06:12:34.325Z,7320
2016-05-19T06:13:34.500Z,7352
2016-05-19T06:15:33.834Z,7436
2016-05-19T06:16:34.304Z,7488
2016-05-19T06:17:34.526Z,7532
2016-05-19T06:18:48.372Z,7624
2016-05-19T06:19:34.312Z,7680
2016-05-19T06:20:33.705Z,7744
2016-05-19T06:21:34.193Z,7824
2016-05-19T06:22:37.117Z,7892
2016-05-19T06:23:34.511Z,7936
2016-05-19T06:24:34.264Z,8012
2016-05-19T06:26:34.394Z,8108
2016-05-19T06:27:34.208Z,8152
2016-05-19T06:28:34.399Z,8196
2016-05-19T06:29:34.433Z,8264
2016-05-19T06:30:34.373Z,8336
2016-05-19T06:31:34.814Z,8404
2016-05-19T06:32:34.426Z,8472
2016-05-19T06:33:34.647Z,8552
2016-05-19T06:34:34.291Z,8640
2016-05-19T06:35:34.434Z,8748
2016-05-19T06:36:34.452Z,8860
2016-05-19T06:37:34.454Z,8940
2016-05-19T06:38:34.457Z,9032
2016-05-19T06:39:34.320Z,9140
2016-05-19T06:40:34.463Z,9224
2016-05-19T06:41:34.496Z,9300
2016-05-19T06:42:34.312Z,9384
2016-05-19T06:44:34.068Z,9480
2016-05-19T06:45:34.523Z,9552
2016-05-19T06:46:34.370Z,9716
2016-05-19T06:47:34.513Z,9788
2016-05-19T06:48:34.750Z,9804
2016-05-19T06:49:34.549Z,9860
2016-05-19T06:50:34.583Z,9896
2016-05-19T06:51:34.570Z,9876
2016-05-19T06:52:34.448Z,9828
2016-05-19T06:53:34.701Z,9688
2016-05-19T06:54:34.469Z,9496
2016-05-19T06:55:34.831Z,9216
2016-05-19T06:56:34.834Z,8948
2016-05-19T06:57:34.462Z,8724
2016-05-19T06:58:34.666Z,8548
2016-05-19T06:59:34.639Z,8448
2016-05-19T07:00:34.610Z,8364
2016-05-19T07:01:34.472Z,8320
2016-05-19T07:02:34.662Z,8264
2016-05-19T07:03:34.665Z,8228
2016-05-19T07:04:34.637Z,8192
2016-05-19T07:05:34.858Z,8196
2016-05-19T07:06:34.892Z,8196
2016-05-19T07:07:34.676Z,8244
2016-05-19T07:08:34.929Z,8320
2016-05-19T07:09:35.134Z,8440
2016-05-19T07:10:34.934Z,8588
2016-05-19T07:11:34.952Z,8740
2016-05-19T07:12:34.751Z,8956
2016-05-19T07:13:34.739Z,9656
2016-05-19T07:14:34.742Z,11164
2016-05-19T07:15:34.791Z,14032
2016-05-19T07:16:34.762Z,15132
2016-05-19T07:17:34.968Z,12052
2016-05-19T07:18:34.765Z,10400
2016-05-19T07:19:34.768Z,10344
2016-05-19T07:20:35.180Z,10612
2016-05-19T07:21:34.633Z,10824
2016-05-19T07:22:34.792Z,10360
2016-05-19T07:23:48.938Z,10112
2016-05-19T07:24:34.703Z,10104
2016-05-19T07:25:34.831Z,10208
2016-05-19T07:26:34.865Z,10260
2016-05-19T07:27:34.821Z,10328
2016-05-19T07:28:34.870Z,10416
2016-05-19T07:29:34.561Z,10524
2016-05-19T07:30:34.892Z,10648
2016-05-19T07:31:34.878Z,10764
2016-05-19T07:32:34.960Z,10844
2016-05-19T07:33:35.149Z,10944
2016-05-19T07:34:34.949Z,11048
2016-05-19T07:35:34.921Z,11232
2016-05-19T07:36:34.939Z,11292
2016-05-19T07:37:34.941Z,11328
2016-05-19T07:38:35.147Z,11468
2016-05-19T07:39:35.040Z,11604
2016-05-19T07:41:35.030Z,11956
2016-05-19T07:42:35.220Z,12164
2016-05-19T07:43:35.020Z,12340
2016-05-19T07:44:35.023Z,12524
2016-05-19T07:45:34.900Z,12692
2016-05-19T07:46:35.044Z,12820
2016-05-19T07:47:35.046Z,12952
2016-05-19T07:48:35.048Z,13100
2016-05-19T07:49:49.743Z,13272
2016-05-19T07:51:35.104Z,13512
2016-05-19T07:52:49.719Z,13652
2016-05-19T07:53:49.769Z,13744
2016-05-19T07:55:35.380Z,13964
2016-05-19T07:56:35.164Z,14068
2016-05-19T07:57:35.152Z,14164
2016-05-19T07:58:35.155Z,14268
2016-05-19T07:59:35.203Z,14344
2016-05-19T08:00:35.191Z,14376
2016-05-19T08:01:35.209Z,14408
2016-05-19T08:02:35.086Z,14380
2016-05-19T08:03:35.668Z,14348
2016-05-19T08:04:34.951Z,14328
2016-05-19T08:05:35.454Z,14328
2016-05-19T08:06:35.254Z,14344
2016-05-19T08:07:35.663Z,14400
2016-05-19T08:08:36.041Z,14488
2016-05-19T08:09:35.294Z,14596
2016-05-19T08:10:34.827Z,14752
2016-05-19T08:11:35.143Z,14892
2016-05-19T08:12:35.332Z,15024
2016-05-19T08:13:35.320Z,15148
2016-05-19T08:14:35.369Z,15248
2016-05-19T08:15:35.215Z,15240
2016-05-19T08:16:35.593Z,15224
2016-05-19T08:17:35.393Z,15228
2016-05-19T08:18:35.255Z,15248
2016-05-19T08:19:35.257Z,15308
2016-05-19T08:20:34.932Z,15500
2016-05-19T08:21:35.122Z,16176
2016-05-19T08:22:35.469Z,17696
2016-05-19T08:23:35.300Z,17088
2016-05-19T08:24:35.677Z,17216
2016-05-19T08:25:35.461Z,18176
2016-05-19T08:26:35.900Z,20480
2016-05-19T08:27:35.513Z,21792
2016-05-19T08:28:35.500Z,23136
2016-05-19T08:29:35.503Z,22592
2016-05-19T08:30:35.366Z,20576
2016-05-19T08:31:48.277Z,19456
2016-05-19T08:32:35.558Z,17888
2016-05-19T08:33:35.764Z,16168
2016-05-19T08:34:35.876Z,15896
2016-05-19T08:35:35.692Z,15808
2016-05-19T08:36:35.600Z,15900
2016-05-19T08:37:35.463Z,16044
2016-05-19T08:38:35.996Z,16344
2016-05-19T08:39:49.954Z,16240
2016-05-19T08:40:35.907Z,16280
2016-05-19T08:41:36.270Z,16412
2016-05-19T08:42:35.913Z,16736
2016-05-19T08:43:35.557Z,16832
2016-05-19T08:44:35.716Z,16896
2016-05-19T08:45:35.437Z,17024
2016-05-19T08:46:35.768Z,17152
2016-05-19T08:47:35.286Z,17312
2016-05-19T08:48:35.820Z,17472
2016-05-19T08:49:35.775Z,17632
2016-05-19T08:50:35.981Z,17728
2016-05-19T08:51:35.984Z,17792
2016-05-19T08:52:35.784Z,17920
2016-05-19T08:53:35.911Z,18016
2016-05-19T08:54:36.039Z,18112
2016-05-19T08:55:35.995Z,18144
2016-05-19T08:56:50.156Z,18144
2016-05-19T08:57:35.906Z,18240
2016-05-19T08:58:36.175Z,18272
2016-05-19T08:59:36.318Z,18016
2016-05-19T09:00:35.961Z,18016
2016-05-19T09:01:35.980Z,17984
2016-05-19T09:02:36.170Z,17984
2016-05-19T09:03:36.048Z,17952
2016-05-19T09:04:35.847Z,17920
2016-05-19T09:05:36.116Z,17952
2016-05-19T09:06:36.009Z,17984
2016-05-19T09:07:36.058Z,18016
2016-05-19T09:08:36.107Z,18112
2016-05-19T09:09:36.126Z,18208
2016-05-19T09:10:36.301Z,18272
2016-05-19T09:11:36.022Z,18304
2016-05-19T09:12:35.962Z,18304
2016-05-19T09:13:36.122Z,18400
2016-05-19T09:14:36.187Z,18528
2016-05-19T09:15:36.173Z,18656
2016-05-19T09:16:35.818Z,18560
2016-05-19T09:17:50.448Z,18784
2016-05-19T09:18:36.354Z,18912
2016-05-19T09:19:36.622Z,19040
2016-05-19T09:20:36.422Z,19040
2016-05-19T09:21:36.456Z,19264
2016-05-19T09:22:36.067Z,19552
2016-05-19T09:23:36.258Z,20032
2016-05-19T09:24:36.495Z,20160
2016-05-19T09:25:36.279Z,19744
2016-05-19T09:26:36.531Z,18976
2016-05-19T09:27:36.300Z,18688
2016-05-19T09:28:36.302Z,18464
2016-05-19T09:29:36.367Z,18592
2016-05-19T09:30:36.417Z,18400
2016-05-19T09:31:36.186Z,18720
2016-05-19T09:32:36.564Z,19648
2016-05-19T09:33:37.050Z,20096
2016-05-19T09:34:37.366Z,20736
2016-05-19T09:35:36.774Z,21536
2016-05-19T09:36:36.746Z,21984
2016-05-19T09:37:36.888Z,22336
2016-05-19T09:38:37.189Z,22752
2016-05-19T09:39:37.223Z,22976
2016-05-19T09:40:37.022Z,23232
2016-05-19T09:41:37.088Z,23616
2016-05-19T09:42:36.855Z,24032
2016-05-19T09:43:51.299Z,27456
2016-05-19T09:44:36.986Z,28896
2016-05-19T09:45:37.067Z,27200
2016-05-19T09:46:37.148Z,26432
2016-05-19T09:48:36.544Z,28960
2016-05-19T09:50:36.956Z,33312
2016-05-19T09:51:37.146Z,27616
2016-05-19T09:52:37.367Z,24832
2016-05-19T09:53:36.948Z,21536
2016-05-19T09:54:37.045Z,22080
2016-05-19T09:55:37.078Z,21728
2016-05-19T09:56:36.753Z,21792
2016-05-19T09:57:37.068Z,21440
2016-05-19T09:58:37.008Z,21248
2016-05-19T09:59:37.230Z,21152
2016-05-19T10:00:37.186Z,21024
2016-05-19T10:01:37.375Z,20896
2016-05-19T10:02:37.019Z,20928
2016-05-19T10:03:36.834Z,20928
2016-05-19T10:04:37.228Z,20928
2016-05-19T10:05:37.308Z,21152
2016-05-19T10:06:37.483Z,23008
2016-05-19T10:07:37.236Z,22144
2016-05-19T10:08:38.505Z,21568
2016-05-19T10:09:36.991Z,21984
2016-05-19T10:10:37.197Z,22464
2016-05-19T10:11:37.683Z,22816
2016-05-19T10:12:37.218Z,23232
2016-05-19T10:13:37.314Z,23456
2016-05-19T10:14:37.302Z,23808
2016-05-19T10:15:37.413Z,24416
2016-05-19T10:16:37.385Z,25120
2016-05-19T10:17:37.325Z,25824
2016-05-19T10:18:37.593Z,26496
2016-05-19T10:19:37.190Z,26304
2016-05-19T10:20:37.693Z,26304
2016-05-19T10:21:37.461Z,26336
2016-05-19T10:22:37.401Z,26272
2016-05-19T10:23:37.341Z,26144
2016-05-19T10:24:37.843Z,26080
2016-05-19T10:25:37.706Z,25984
2016-05-19T10:26:37.553Z,25792
2016-05-19T10:27:37.493Z,25568
2016-05-19T10:28:37.526Z,25376
2016-05-19T10:30:37.360Z,25568
2016-05-19T10:31:37.675Z,25824
2016-05-19T10:32:37.834Z,26144
2016-05-19T10:33:37.603Z,26304
2016-05-19T10:34:37.418Z,26464
2016-05-19T10:35:38.498Z,26496
2016-05-19T10:36:37.626Z,26656
2016-05-19T10:37:37.863Z,26720
2016-05-19T10:38:38.600Z,26720
2016-05-19T10:39:37.572Z,26784
2016-05-19T10:40:37.841Z,27008
2016-05-19T10:41:38.061Z,27392
2016-05-19T10:42:37.486Z,27904
2016-05-19T10:43:39.395Z,28512
2016-05-19T10:44:38.085Z,28960
2016-05-19T10:45:37.807Z,29248
2016-05-19T10:46:37.919Z,29376
2016-05-19T10:47:37.985Z,29440
2016-05-19T10:48:38.096Z,29472
2016-05-19T10:49:37.958Z,29568
2016-05-19T10:50:37.867Z,29760
2016-05-19T10:51:37.713Z,30080
2016-05-19T10:52:38.419Z,30304
2016-05-19T10:53:38.016Z,30432
2016-05-19T10:54:38.331Z,30560
2016-05-19T10:55:38.381Z,30656
2016-05-19T10:56:38.118Z,30720
2016-05-19T10:57:38.073Z,30656
2016-05-19T10:58:38.106Z,30496
2016-05-19T10:59:38.063Z,30432
2016-05-19T11:00:37.816Z,30368
2016-05-19T11:01:38.100Z,30272
2016-05-19T11:02:38.025Z,30208
2016-05-19T11:03:38.089Z,30144
2016-05-19T11:04:38.030Z,30016
2016-05-19T11:05:38.063Z,29984
2016-05-19T11:06:38.081Z,29888
2016-05-19T11:08:38.587Z,29792
2016-05-19T11:09:38.497Z,29728
2016-05-19T11:10:38.358Z,29728
2016-05-19T11:11:38.032Z,29696
2016-05-19T11:12:38.379Z,29696
2016-05-19T11:13:38.383Z,29696
2016-05-19T11:14:38.072Z,29696
2016-05-19T11:15:38.200Z,29696
2016-05-19T11:16:38.077Z,29632
2016-05-19T11:17:38.315Z,29664
2016-05-19T11:18:39.223Z,29632
2016-05-19T11:19:37.960Z,29600
2016-05-19T11:20:38.057Z,29632
2016-05-19T11:21:37.935Z,29536
2016-05-19T11:22:38.671Z,29472
2016-05-19T11:23:39.971Z,29408
2016-05-19T11:24:38.412Z,29216
2016-05-19T11:25:38.477Z,29152
2016-05-19T11:26:38.573Z,29024
2016-05-19T11:27:38.670Z,29056
2016-05-19T11:28:40.735Z,29088
2016-05-19T11:29:38.519Z,29088
2016-05-19T11:30:38.225Z,29184
2016-05-19T11:31:38.290Z,29120
2016-05-19T11:32:38.292Z,29120
2016-05-19T11:33:40.076Z,29184
2016-05-19T11:34:38.297Z,29088
2016-05-19T11:35:38.347Z,28960
2016-05-19T11:36:38.178Z,28896
2016-05-19T11:37:38.040Z,28928
2016-05-19T11:38:38.511Z,28864
2016-05-19T11:39:38.374Z,28832
2016-05-19T11:40:38.391Z,28672
2016-05-19T11:41:38.425Z,28608
2016-05-19T11:42:38.304Z,28512
2016-05-19T11:43:38.494Z,28288
2016-05-19T11:44:38.652Z,28096
2016-05-19T11:45:38.202Z,27904
2016-05-19T11:46:38.768Z,27680
2016-05-19T11:47:38.621Z,27584
2016-05-19T11:48:38.819Z,27648
2016-05-19T11:49:39.065Z,27840
2016-05-19T11:50:38.766Z,28064
2016-05-19T11:51:38.792Z,28224
2016-05-19T11:52:38.859Z,28256
2016-05-19T11:53:38.892Z,28224
2016-05-19T11:54:40.080Z,28288
2016-05-19T11:55:38.754Z,28320
2016-05-19T11:56:39.177Z,28544
2016-05-19T11:57:38.967Z,28896
2016-05-19T11:58:38.975Z,29440
2016-05-19T11:59:38.999Z,29824
2016-05-19T12:01:38.891Z,30304
2016-05-19T12:02:39.068Z,30368
2016-05-19T12:03:39.165Z,30368
2016-05-19T12:04:39.138Z,30528
2016-05-19T12:05:39.596Z,30592
2016-05-19T12:06:39.273Z,30624
2016-05-19T12:07:53.530Z,30368
2016-05-19T12:08:39.843Z,30112
2016-05-19T12:09:39.783Z,29824
2016-05-19T12:10:39.536Z,29728
2016-05-19T12:11:39.743Z,29472
2016-05-19T12:12:39.668Z,29184
2016-05-19T12:14:39.455Z,28576
2016-05-19T12:15:39.693Z,28224
2016-05-19T12:16:39.978Z,27808
2016-05-19T12:17:40.386Z,27488
2016-05-19T12:18:39.780Z,27328
2016-05-19T12:19:39.658Z,27072
2016-05-19T12:20:40.191Z,26816
2016-05-19T12:21:39.553Z,26720
2016-05-19T12:22:39.946Z,26688
2016-05-19T12:23:39.934Z,26592
2016-05-19T12:24:40.937Z,26496
2016-05-19T12:25:39.923Z,26400
2016-05-19T12:26:39.988Z,26592
2016-05-19T12:27:39.945Z,26816
2016-05-19T12:28:40.166Z,26880
2016-05-19T12:29:39.981Z,26816
2016-05-19T12:30:39.812Z,26496
2016-05-19T12:31:39.596Z,26368
2016-05-19T12:32:40.005Z,26144
2016-05-19T12:33:39.914Z,25792
2016-05-19T12:34:39.995Z,25312
2016-05-19T12:36:40.172Z,24544
2016-05-19T12:37:40.065Z,24288
2016-05-19T12:38:42.303Z,24224
2016-05-19T12:39:39.773Z,24256
2016-05-19T12:40:40.042Z,24384
2016-05-19T12:41:40.045Z,24352
2016-05-19T12:42:39.517Z,23776
2016-05-19T12:43:40.238Z,23040
2016-05-19T12:44:40.116Z,22528
2016-05-19T12:45:40.227Z,22144
2016-05-19T12:46:40.183Z,21728
2016-05-19T12:47:40.092Z,21280
2016-05-19T12:48:40.172Z,20960
2016-05-19T12:49:40.222Z,20736
2016-05-19T12:50:40.210Z,20704
2016-05-19T12:51:40.260Z,20800
2016-05-19T12:52:40.308Z,20896
2016-05-19T12:53:40.358Z,20992
2016-05-19T12:54:40.502Z,21056
2016-05-19T12:55:40.348Z,21216
2016-05-19T12:56:40.257Z,21504
2016-05-19T12:57:40.463Z,21888
2016-05-19T12:58:54.563Z,22272
2016-05-19T12:59:40.313Z,22560
2016-05-19T13:00:40.377Z,23072
2016-05-19T13:01:40.318Z,23616
2016-05-19T13:02:40.351Z,23584
2016-05-19T13:03:40.417Z,23616
2016-05-19T13:04:40.294Z,23616
2016-05-19T13:05:40.437Z,23584
2016-05-19T13:06:40.534Z,23648
2016-05-19T13:07:40.490Z,23360
2016-05-19T13:08:40.649Z,22976
2016-05-19T13:09:41.511Z,22464
2016-05-19T13:10:40.264Z,21856
2016-05-19T13:11:40.125Z,21472
2016-05-19T13:12:39.847Z,21152
2016-05-19T13:13:40.850Z,20864
2016-05-19T13:14:40.556Z,20832
2016-05-19T13:15:40.839Z,20832
2016-05-19T13:16:40.669Z,20800
2016-05-19T13:17:40.719Z,21792
2016-05-19T13:18:41.145Z,21728
2016-05-19T13:19:40.444Z,22464
2016-05-19T13:20:40.884Z,23936
2016-05-19T13:21:40.308Z,24416
2016-05-19T13:22:40.639Z,24544
2016-05-19T13:23:41.002Z,24608
2016-05-19T13:24:41.129Z,24416
2016-05-19T13:25:40.491Z,24128
2016-05-19T13:26:40.510Z,23936
2016-05-19T13:27:40.247Z,23808
2016-05-19T13:28:40.563Z,24032
2016-05-19T13:29:54.489Z,24352
2016-05-19T13:30:40.582Z,24992
2016-05-19T13:31:40.476Z,25088
2016-05-19T13:32:40.620Z,24896
2016-05-19T13:33:45.293Z,24608
2016-05-19T13:34:40.843Z,24256
2016-05-19T13:35:40.674Z,24704
2016-05-19T13:36:41.052Z,24480
2016-05-19T13:37:41.383Z,25792
2016-05-19T13:38:44.276Z,26400
2016-05-19T13:39:40.904Z,26656
2016-05-19T13:40:40.984Z,27488
2016-05-19T13:41:40.909Z,27744
2016-05-19T13:42:41.131Z,27488
2016-05-19T13:43:41.243Z,26720
2016-05-19T13:44:41.261Z,26784